createdAt,value
2022-12-28T00:02:13.923Z,3.78
2022-12-28T00:04:44.428Z,3.68
2022-12-28T00:07:11.708Z,3.65
2022-12-28T00:09:40.886Z,3.56
2022-12-28T00:12:08.353Z,3.54
2022-12-28T00:14:35.577Z,3.52
2022-12-28T00:17:02.758Z,3.47
2022-12-28T00:19:30.231Z,3.43
2022-12-28T00:21:57.692Z,3.39
2022-12-28T00:24:26.221Z,3.39
2022-12-28T00:26:56.684Z,3.38
2022-12-28T00:29:24.362Z,3.34
2022-12-28T00:31:51.876Z,3.26
2022-12-28T00:34:19.452Z,3.22
2022-12-28T00:37:11.701Z,3.20
2022-12-28T00:39:37.919Z,3.10
2022-12-28T00:42:06.057Z,3.08
2022-12-28T00:44:33.385Z,3.12
2022-12-28T00:47:00.738Z,3.04
2022-12-28T00:49:28.146Z,3.02
2022-12-28T00:51:55.435Z,3.01
2022-12-28T00:54:23.251Z,2.98
2022-12-28T00:56:52.659Z,2.95
2022-12-28T00:59:19.850Z,2.97
2022-12-28T01:01:47.110Z,2.95
2022-12-28T01:04:14.692Z,2.93
2022-12-28T01:06:42.030Z,2.91
2022-12-28T01:09:09.288Z,2.87
2022-12-28T01:11:36.555Z,2.80
2022-12-28T01:14:03.963Z,2.72
2022-12-28T01:16:39.325Z,2.66
2022-12-28T01:19:09.928Z,2.65
2022-12-28T01:21:37.245Z,2.65
2022-12-28T01:24:08.561Z,2.69
2022-12-28T01:26:36.542Z,2.70
2022-12-28T01:29:03.964Z,2.66
2022-12-28T01:31:33.414Z,2.62
2022-12-28T01:34:02.035Z,2.67
2022-12-28T01:36:33.003Z,2.67
2022-12-28T01:39:04.291Z,2.61
2022-12-28T01:41:37.655Z,2.71
2022-12-28T01:44:04.737Z,2.71
2022-12-28T01:46:42.933Z,2.71
2022-12-28T01:49:40.793Z,2.83
2022-12-28T01:52:39.702Z,3.01
2022-12-28T01:55:12.762Z,3.04
2022-12-28T01:57:50.138Z,3.09
2022-12-28T02:00:18.560Z,3.09
2022-12-28T02:03:05.286Z,3.12
2022-12-28T02:05:41.667Z,3.25
2022-12-28T02:08:46.808Z,3.32
2022-12-28T02:11:18.507Z,3.37
2022-12-28T02:13:50.662Z,3.51
2022-12-28T02:16:19.265Z,3.64
2022-12-28T02:18:48.310Z,3.68
2022-12-28T02:21:43.721Z,3.58
2022-12-28T02:24:41.683Z,3.54
2022-12-28T02:27:24.621Z,3.55
2022-12-28T02:30:12.832Z,3.59
2022-12-28T02:33:07.961Z,3.66
2022-12-28T02:36:18.125Z,3.70
2022-12-28T02:39:08.559Z,3.74
2022-12-28T02:41:40.174Z,3.80
2022-12-28T02:44:08.059Z,3.85
2022-12-28T02:46:54.215Z,3.87
2022-12-28T02:49:45.742Z,3.90
2022-12-28T02:53:12.794Z,3.94
2022-12-28T02:56:08.183Z,3.99
2022-12-28T02:59:19.148Z,4.05
2022-12-28T03:02:20.772Z,4.08
2022-12-28T03:05:19.031Z,4.09
2022-12-28T03:08:20.491Z,4.13
2022-12-28T03:11:19.256Z,4.29
2022-12-28T03:14:09.368Z,4.31
2022-12-28T03:17:04.142Z,4.33
2022-12-28T03:20:04.474Z,4.32
2022-12-28T03:22:55.639Z,4.30
2022-12-28T03:25:49.794Z,4.30
2022-12-28T03:28:46.065Z,4.30
2022-12-28T03:31:19.737Z,4.21
2022-12-28T03:34:06.716Z,4.16
2022-12-28T03:37:29.142Z,4.15
2022-12-28T03:40:40.968Z,4.17
2022-12-28T03:43:35.212Z,4.11
2022-12-28T03:46:23.344Z,4.14
2022-12-28T03:48:53.060Z,4.11
2022-12-28T03:51:24.278Z,4.11
2022-12-28T03:53:52.755Z,4.05
2022-12-28T03:56:28.224Z,3.98
2022-12-28T03:58:59.411Z,3.99
2022-12-28T04:01:34.876Z,3.96
2022-12-28T04:04:02.314Z,3.95
2022-12-28T04:06:29.536Z,3.99
2022-12-28T04:08:57.556Z,3.97
2022-12-28T04:11:28.204Z,3.99
2022-12-28T04:13:56.988Z,4.06
2022-12-28T04:16:26.864Z,4.10
2022-12-28T04:18:54.562Z,4.10
2022-12-28T04:21:22.039Z,4.14
2022-12-28T04:23:49.261Z,4.06
2022-12-28T04:26:26.111Z,4.02
2022-12-28T04:28:57.940Z,4.02
2022-12-28T04:31:25.286Z,4.09
2022-12-28T04:34:05.323Z,4.12
2022-12-28T04:36:35.912Z,4.22
2022-12-28T04:39:06.971Z,4.28
2022-12-28T04:41:34.133Z,4.29
2022-12-28T04:44:01.795Z,4.32
2022-12-28T04:46:29.204Z,4.41
2022-12-28T04:48:56.420Z,4.43
2022-12-28T04:51:27.452Z,4.42
2022-12-28T04:53:56.917Z,4.45
2022-12-28T04:56:26.358Z,4.51
2022-12-28T04:59:00.851Z,4.53
2022-12-28T05:01:28.701Z,4.56
2022-12-28T05:03:59.874Z,4.57
2022-12-28T05:06:27.997Z,4.57
2022-12-28T05:08:57.582Z,4.61
2022-12-28T05:11:28.913Z,4.67
2022-12-28T05:13:57.005Z,4.74
2022-12-28T05:16:27.981Z,4.84
2022-12-28T05:18:57.542Z,4.91
2022-12-28T05:21:29.149Z,4.95
2022-12-28T05:23:57.528Z,4.94
2022-12-28T05:26:29.068Z,4.93
2022-12-28T05:28:58.524Z,4.97
2022-12-28T05:31:26.458Z,4.98
2022-12-28T05:33:54.727Z,4.97
2022-12-28T05:36:26.129Z,4.94
2022-12-28T05:38:55.198Z,4.92
2022-12-28T05:41:27.856Z,4.87
2022-12-28T05:43:57.597Z,4.91
2022-12-28T05:46:30.939Z,4.94
2022-12-28T05:48:59.265Z,4.92
2022-12-28T05:51:32.536Z,4.98
2022-12-28T05:54:04.390Z,4.95
2022-12-28T05:56:32.560Z,4.97
2022-12-28T05:59:04.553Z,4.90
2022-12-28T06:01:39.750Z,4.91
2022-12-28T06:04:16.390Z,4.93
2022-12-28T06:06:45.364Z,4.91
2022-12-28T06:09:14.083Z,4.86
2022-12-28T06:11:41.950Z,4.85
2022-12-28T06:14:09.399Z,4.88
2022-12-28T06:16:42.134Z,4.86
2022-12-28T06:19:14.563Z,4.85
2022-12-28T06:21:42.457Z,4.84
2022-12-28T06:24:11.542Z,4.87
2022-12-28T06:26:40.883Z,4.90
2022-12-28T06:29:08.420Z,4.93
2022-12-28T06:31:40.668Z,4.98
2022-12-28T06:34:10.764Z,4.95
2022-12-28T06:36:45.262Z,4.93
2022-12-28T06:39:14.478Z,4.91
2022-12-28T06:41:42.889Z,4.92
2022-12-28T06:44:13.587Z,4.91
2022-12-28T06:46:41.156Z,4.90
2022-12-28T06:49:08.592Z,4.94
2022-12-28T06:51:40.566Z,4.93
2022-12-28T06:54:09.311Z,4.95
2022-12-28T06:56:37.498Z,4.89
2022-12-28T06:59:05.847Z,4.90
2022-12-28T07:01:40.890Z,4.90
2022-12-28T07:04:10.497Z,4.91
2022-12-28T07:06:42.832Z,4.97
2022-12-28T07:09:16.383Z,4.94
2022-12-28T07:11:50.377Z,4.91
2022-12-28T07:14:18.906Z,4.91
2022-12-28T07:16:47.665Z,4.94
2022-12-28T07:19:14.915Z,5.00
2022-12-28T07:21:42.368Z,5.05
2022-12-28T07:24:09.861Z,5.10
2022-12-28T07:26:38.098Z,5.11
2022-12-28T07:29:08.433Z,5.15
2022-12-28T07:31:44.729Z,5.17
2022-12-28T07:34:15.895Z,5.17
2022-12-28T07:36:43.710Z,5.22
2022-12-28T07:39:11.002Z,5.28
2022-12-28T07:41:38.540Z,5.33
2022-12-28T07:44:06.971Z,5.39
2022-12-28T07:46:37.794Z,5.45
2022-12-28T07:49:05.612Z,5.52
2022-12-28T07:51:38.973Z,5.58
2022-12-28T07:54:07.089Z,5.62
2022-12-28T07:59:05.571Z,5.67
2022-12-28T08:01:36.991Z,5.75
2022-12-28T08:04:09.634Z,5.84
2022-12-28T08:06:41.787Z,5.83
2022-12-28T08:09:12.674Z,5.90
2022-12-28T08:11:44.532Z,5.91
2022-12-28T08:14:12.849Z,5.97
2022-12-28T08:16:43.944Z,5.99
2022-12-28T08:19:12.117Z,5.99
2022-12-28T08:21:44.850Z,6.03
2022-12-28T08:24:19.435Z,6.04
2022-12-28T08:26:48.734Z,6.09
2022-12-28T08:29:21.709Z,6.13
2022-12-28T08:31:49.917Z,6.11
2022-12-28T08:34:26.340Z,6.15
2022-12-28T08:36:57.213Z,6.18
2022-12-28T08:39:24.606Z,6.20
2022-12-28T08:41:51.867Z,6.27
2022-12-28T08:44:19.241Z,6.27
2022-12-28T08:46:46.595Z,6.23
2022-12-28T08:49:14.192Z,6.19
2022-12-28T08:51:42.674Z,6.13
2022-12-28T08:54:13.547Z,6.05
2022-12-28T08:56:44.032Z,6.20
2022-12-28T08:59:18.435Z,6.22
2022-12-28T09:01:47.309Z,6.25
2022-12-28T09:04:22.112Z,6.33
2022-12-28T09:06:50.359Z,6.32
2022-12-28T09:09:19.892Z,6.47
2022-12-28T09:11:48.553Z,6.45
2022-12-28T09:14:23.114Z,6.42
2022-12-28T09:16:54.553Z,6.30
2022-12-28T09:19:23.198Z,6.31
2022-12-28T09:21:53.189Z,6.33
2022-12-28T09:24:21.771Z,6.38
2022-12-28T09:26:50.889Z,6.47
2022-12-28T09:29:18.122Z,6.52
2022-12-28T09:32:35.130Z,6.53
2022-12-28T09:35:02.426Z,6.68
2022-12-28T09:37:29.748Z,6.76
2022-12-28T09:40:01.346Z,6.80
2022-12-28T09:43:35.752Z,6.86
2022-12-28T09:46:03.415Z,6.84
2022-12-28T09:48:31.093Z,6.98
2022-12-28T09:50:58.437Z,6.88
2022-12-28T09:53:30.837Z,6.96
2022-12-28T09:56:24.859Z,7.16
2022-12-28T09:58:53.427Z,7.29
2022-12-28T10:01:22.410Z,7.34
2022-12-28T10:03:49.993Z,7.34
2022-12-28T10:06:25.748Z,7.42
2022-12-28T10:09:04.819Z,7.37
2022-12-28T10:11:41.690Z,7.52
2022-12-28T10:14:42.808Z,7.66
2022-12-28T10:17:15.102Z,7.89
2022-12-28T10:19:46.571Z,7.86
2022-12-28T10:22:19.798Z,7.61
2022-12-28T10:24:48.247Z,7.53
2022-12-28T10:27:31.750Z,7.58
2022-12-28T10:30:02.596Z,7.58
2022-12-28T10:33:02.490Z,7.57
2022-12-28T10:35:50.117Z,7.55
2022-12-28T10:38:32.141Z,7.51
2022-12-28T10:41:09.701Z,7.49
2022-12-28T10:43:41.905Z,7.52
2022-12-28T10:46:22.612Z,7.51
2022-12-28T10:49:00.186Z,7.53
2022-12-28T10:51:29.762Z,7.59
2022-12-28T10:53:58.350Z,7.63
2022-12-28T10:56:45.073Z,7.68
2022-12-28T10:59:12.646Z,7.86
2022-12-28T11:01:42.957Z,8.01
2022-12-28T11:04:20.820Z,8.24
2022-12-28T11:07:00.124Z,8.52
2022-12-28T11:09:35.700Z,8.57
2022-12-28T11:12:28.969Z,8.61
2022-12-28T11:14:56.253Z,8.63
2022-12-28T11:17:29.194Z,8.64
2022-12-28T11:20:18.947Z,8.62
2022-12-28T11:22:47.509Z,8.60
2022-12-28T11:25:31.172Z,8.57
2022-12-28T11:27:59.479Z,8.64
2022-12-28T11:30:26.947Z,8.60
2022-12-28T11:33:02.265Z,8.71
2022-12-28T11:35:36.992Z,8.65
2022-12-28T11:38:12.229Z,8.68
2022-12-28T11:40:45.403Z,8.60
2022-12-28T11:43:30.643Z,8.60
2022-12-28T11:46:27.932Z,8.61
2022-12-28T11:48:54.912Z,8.57
2022-12-28T11:51:36.275Z,8.52
2022-12-28T11:54:42.572Z,8.57
2022-12-28T11:57:11.156Z,8.60
2022-12-28T11:59:38.385Z,8.61
2022-12-28T12:02:08.244Z,8.55
2022-12-28T12:04:46.203Z,8.66
2022-12-28T12:07:30.695Z,8.73
2022-12-28T12:10:30.936Z,8.77
2022-12-28T12:12:58.844Z,8.90
2022-12-28T12:15:37.857Z,9.11
2022-12-28T12:18:18.815Z,9.26
2022-12-28T12:21:11.617Z,9.23
2022-12-28T12:24:04.340Z,9.39
2022-12-28T12:26:58.811Z,9.67
2022-12-28T12:30:00.717Z,9.91
2022-12-28T12:32:58.839Z,9.86
2022-12-28T12:35:31.179Z,9.87
2022-12-28T12:39:17.970Z,10.12
2022-12-28T12:42:56.150Z,10.04
2022-12-28T12:45:55.903Z,10.05
2022-12-28T12:48:52.992Z,9.76
2022-12-28T12:51:43.491Z,9.73
2022-12-28T12:55:06.259Z,9.61
2022-12-28T12:58:03.148Z,9.56
2022-12-28T13:01:28.320Z,9.48
2022-12-28T13:04:07.510Z,9.47
2022-12-28T13:06:39.333Z,9.55
2022-12-28T13:09:09.789Z,9.68
2022-12-28T13:11:38.672Z,9.73
2022-12-28T13:14:06.748Z,9.74
2022-12-28T13:16:34.089Z,9.67
2022-12-28T13:19:07.331Z,9.49
2022-12-28T13:21:46.117Z,9.23
2022-12-28T13:24:28.241Z,9.09
2022-12-28T13:26:58.765Z,8.96
2022-12-28T13:29:39.118Z,8.88
2022-12-28T13:32:06.271Z,8.84
2022-12-28T13:34:38.528Z,8.84
2022-12-28T13:37:17.374Z,8.90
2022-12-28T13:39:44.889Z,8.97
2022-12-28T13:42:18.303Z,9.09
2022-12-28T13:45:09.063Z,9.26
2022-12-28T13:47:49.650Z,9.34
2022-12-28T13:50:32.756Z,9.32
2022-12-28T13:53:05.152Z,9.33
2022-12-28T13:55:50.135Z,9.16
2022-12-28T13:58:30.408Z,9.17
2022-12-28T14:01:01.410Z,9.04
2022-12-28T14:03:33.356Z,8.88
2022-12-28T14:06:06.347Z,8.84
2022-12-28T14:08:37.793Z,8.82
2022-12-28T14:11:06.538Z,8.67
2022-12-28T14:13:36.035Z,8.61
2022-12-28T14:16:05.473Z,8.53
2022-12-28T14:18:34.599Z,8.47
2022-12-28T14:21:03.916Z,8.27
2022-12-28T14:23:35.600Z,8.28
2022-12-28T14:26:19.302Z,8.13
2022-12-28T14:28:54.555Z,8.12
2022-12-28T14:31:32.076Z,8.03
2022-12-28T14:34:04.853Z,8.03
2022-12-28T14:36:46.406Z,8.08
2022-12-28T14:39:45.269Z,8.05
2022-12-28T14:42:26.159Z,8.01
2022-12-28T14:44:56.516Z,7.95
2022-12-28T14:47:45.233Z,7.91
2022-12-28T14:50:31.537Z,7.82
2022-12-28T14:53:20.150Z,7.87
2022-12-28T14:55:53.096Z,7.74
2022-12-28T14:58:30.960Z,7.73
2022-12-28T15:01:03.096Z,7.74
2022-12-28T15:03:30.847Z,7.80
2022-12-28T15:06:00.011Z,7.78
2022-12-28T15:08:27.722Z,7.78
2022-12-28T15:11:00.242Z,7.67
2022-12-28T15:13:27.716Z,7.64
2022-12-28T15:16:01.552Z,7.67
2022-12-28T15:18:30.752Z,7.65
2022-12-28T15:21:03.232Z,7.67
2022-12-28T15:23:30.449Z,7.56
2022-12-28T15:25:57.664Z,7.53
2022-12-28T15:28:25.713Z,7.60
2022-12-28T15:30:52.929Z,7.42
2022-12-28T15:33:20.179Z,7.38
2022-12-28T15:35:47.406Z,7.42
2022-12-28T15:38:14.549Z,7.36
2022-12-28T15:40:41.847Z,7.33
2022-12-28T15:43:09.389Z,7.31
2022-12-28T15:45:36.693Z,7.36
2022-12-28T15:48:05.026Z,7.39
2022-12-28T15:50:32.278Z,7.28
2022-12-28T15:53:00.457Z,7.22
2022-12-28T15:55:27.716Z,7.16
2022-12-28T15:57:55.613Z,7.16
2022-12-28T16:00:22.935Z,7.23
2022-12-28T16:02:50.299Z,7.28
2022-12-28T16:05:17.733Z,7.28
2022-12-28T16:07:45.000Z,7.26
2022-12-28T16:10:12.259Z,7.27
2022-12-28T16:12:39.741Z,7.29
2022-12-28T16:15:08.676Z,7.23
2022-12-28T16:17:43.322Z,7.17
2022-12-28T16:20:17.346Z,7.11
2022-12-28T16:22:44.588Z,7.13
2022-12-28T16:25:11.995Z,7.08
2022-12-28T16:27:39.312Z,7.05
2022-12-28T16:30:07.545Z,7.01
2022-12-28T16:32:34.812Z,7.01
2022-12-28T16:35:02.042Z,6.95
2022-12-28T16:37:29.340Z,6.94
2022-12-28T16:39:56.552Z,6.95
2022-12-28T16:42:23.834Z,6.93
2022-12-28T16:44:51.293Z,6.91
2022-12-28T16:47:18.515Z,6.89
2022-12-28T16:49:45.773Z,6.91
2022-12-28T16:52:13.025Z,6.94
2022-12-28T16:54:40.173Z,6.92
2022-12-28T16:57:07.471Z,6.89
2022-12-28T16:59:34.701Z,6.86
2022-12-28T17:02:02.305Z,6.88
2022-12-28T17:04:29.763Z,6.83
2022-12-28T17:06:57.160Z,6.79
2022-12-28T17:09:24.367Z,6.77
2022-12-28T17:11:51.852Z,6.74
2022-12-28T17:17:07.796Z,6.76
2022-12-28T17:19:35.718Z,6.78
2022-12-28T17:22:04.785Z,6.74
2022-12-28T17:24:31.984Z,6.69
2022-12-28T17:27:03.638Z,6.69
2022-12-28T17:29:34.640Z,6.73
2022-12-28T17:32:01.899Z,6.79
2022-12-28T17:34:29.097Z,6.80
2022-12-28T17:36:56.314Z,6.77
2022-12-28T17:39:23.500Z,6.73
2022-12-28T17:41:50.786Z,6.71
2022-12-28T17:44:18.033Z,6.69
2022-12-28T17:46:45.141Z,6.71
2022-12-28T17:49:15.843Z,6.81
2022-12-28T17:51:44.447Z,6.83
2022-12-28T17:54:14.767Z,6.81
2022-12-28T17:56:43.337Z,6.77
2022-12-28T17:59:16.315Z,6.74
2022-12-28T18:01:43.632Z,6.74
2022-12-28T18:04:12.121Z,6.72
2022-12-28T18:06:39.717Z,6.72
2022-12-28T18:09:06.919Z,6.72
2022-12-28T18:11:34.207Z,6.72
2022-12-28T18:14:01.389Z,6.71
2022-12-28T18:16:28.690Z,6.70
2022-12-28T18:18:55.914Z,6.69
2022-12-28T18:21:23.198Z,6.67
2022-12-28T18:23:52.609Z,6.69
2022-12-28T18:26:26.593Z,6.70
2022-12-28T18:28:57.480Z,6.70
2022-12-28T18:31:26.718Z,6.67
2022-12-28T18:33:54.008Z,6.65
2022-12-28T18:36:21.318Z,6.64
2022-12-28T18:38:49.242Z,6.61
2022-12-28T18:41:20.925Z,6.60
2022-12-28T18:43:51.269Z,6.57
2022-12-28T18:46:19.095Z,6.59
2022-12-28T18:48:46.408Z,6.61
2022-12-28T18:51:18.367Z,6.62
2022-12-28T18:53:46.661Z,6.64
2022-12-28T18:56:18.882Z,6.65
2022-12-28T18:58:55.579Z,6.69
2022-12-28T19:04:16.472Z,6.63
2022-12-28T19:06:44.340Z,6.60
2022-12-28T19:09:12.399Z,6.54
2022-12-28T19:11:40.555Z,6.53
2022-12-28T19:14:12.334Z,6.52
2022-12-28T19:16:40.600Z,6.48
2022-12-28T19:19:08.071Z,6.49
2022-12-28T19:21:41.855Z,6.47
2022-12-28T19:24:18.803Z,6.44
2022-12-28T19:26:47.211Z,6.44
2022-12-28T19:29:16.507Z,6.41
2022-12-28T19:31:44.231Z,6.42
2022-12-28T19:34:11.647Z,6.43
2022-12-28T19:36:38.825Z,6.41
2022-12-28T19:39:06.260Z,6.38
2022-12-28T19:41:33.562Z,6.40
2022-12-28T19:44:01.488Z,6.40
2022-12-28T19:46:32.823Z,6.40
2022-12-28T19:49:02.987Z,6.42
2022-12-28T19:51:32.929Z,6.45
2022-12-28T19:54:01.930Z,6.45
2022-12-28T19:56:29.391Z,6.45
2022-12-28T19:59:04.922Z,6.45
2022-12-28T20:01:35.170Z,6.44
2022-12-28T20:04:08.809Z,6.47
2022-12-28T20:06:40.925Z,6.45
2022-12-28T20:09:08.116Z,6.42
2022-12-28T20:11:38.164Z,6.41
2022-12-28T20:14:06.214Z,6.38
2022-12-28T20:16:36.096Z,6.33
2022-12-28T20:19:06.921Z,6.33
2022-12-28T20:21:36.833Z,6.34
2022-12-28T20:24:05.814Z,6.32
2022-12-28T20:26:33.355Z,6.28
2022-12-28T20:29:02.823Z,6.26
2022-12-28T20:31:30.965Z,6.28
2022-12-28T20:33:58.512Z,6.27
2022-12-28T20:36:28.699Z,6.31
2022-12-28T20:38:56.702Z,6.34
2022-12-28T20:41:48.541Z,6.29
2022-12-28T20:44:26.753Z,6.29
2022-12-28T20:46:56.275Z,6.31
2022-12-28T20:49:26.814Z,6.35
2022-12-28T20:51:54.880Z,6.36
2022-12-28T20:54:22.569Z,6.33
2022-12-28T20:56:54.667Z,6.31
2022-12-28T20:59:24.740Z,6.35
2022-12-28T21:01:52.279Z,6.38
2022-12-28T21:04:19.710Z,6.43
2022-12-28T21:06:47.007Z,6.42
2022-12-28T21:09:14.155Z,6.42
2022-12-28T21:11:42.331Z,6.37
2022-12-28T21:14:09.487Z,6.31
2022-12-28T21:16:37.016Z,6.31
2022-12-28T21:19:04.349Z,6.33
2022-12-28T21:21:31.582Z,6.33
2022-12-28T21:23:58.936Z,6.31
2022-12-28T21:26:26.162Z,6.28
2022-12-28T21:28:53.400Z,6.30
2022-12-28T21:31:20.623Z,6.30
2022-12-28T21:33:47.872Z,6.30
2022-12-28T21:36:19.062Z,6.29
2022-12-28T21:38:49.860Z,6.28
2022-12-28T21:41:40.079Z,6.26
2022-12-28T21:44:11.548Z,6.26
2022-12-28T21:46:39.169Z,6.30
2022-12-28T21:49:07.132Z,6.26
2022-12-28T21:51:35.398Z,6.24
2022-12-28T21:54:12.156Z,6.23
2022-12-28T21:56:41.873Z,6.23
2022-12-28T21:59:11.997Z,6.23
2022-12-28T22:01:59.992Z,6.26
2022-12-28T22:04:47.269Z,6.21
2022-12-28T22:07:18.084Z,6.14
2022-12-28T22:10:04.299Z,6.15
2022-12-28T22:12:34.318Z,6.15
2022-12-28T22:15:37.495Z,6.17
2022-12-28T22:18:29.998Z,6.28
2022-12-28T22:21:03.101Z,6.33
2022-12-28T22:23:34.544Z,6.35
2022-12-28T22:26:03.271Z,6.36
2022-12-28T22:28:30.671Z,6.39
2022-12-28T22:30:57.859Z,6.38
2022-12-28T22:33:25.076Z,6.36
2022-12-28T22:35:52.229Z,6.34
2022-12-28T22:38:19.479Z,6.35
2022-12-28T22:40:56.749Z,6.34
2022-12-28T22:43:23.964Z,6.31
2022-12-28T22:46:07.716Z,6.31
2022-12-28T22:48:35.867Z,6.33
2022-12-28T22:51:11.669Z,6.35
2022-12-28T22:53:40.082Z,6.34
2022-12-28T22:56:12.578Z,6.34
2022-12-28T22:58:39.788Z,6.33
2022-12-28T23:01:15.199Z,6.34
2022-12-28T23:03:45.611Z,6.34
2022-12-28T23:06:18.421Z,6.37
2022-12-28T23:08:46.809Z,6.36
2022-12-28T23:11:36.524Z,6.38
2022-12-28T23:14:33.039Z,6.31
2022-12-28T23:17:02.182Z,6.26
2022-12-28T23:19:48.900Z,6.25
2022-12-28T23:22:45.850Z,6.27
2022-12-28T23:25:39.362Z,6.34
2022-12-28T23:28:12.608Z,6.34
2022-12-28T23:30:46.345Z,6.33
2022-12-28T23:33:15.240Z,6.33
2022-12-28T23:35:42.569Z,6.32
2022-12-28T23:38:10.795Z,6.32
2022-12-28T23:40:41.044Z,6.32
2022-12-28T23:43:08.632Z,6.31
2022-12-28T23:45:36.564Z,6.26
2022-12-28T23:48:05.039Z,6.26
2022-12-28T23:50:32.496Z,6.27
2022-12-28T23:52:59.785Z,6.30
2022-12-28T23:55:27.063Z,6.30
2022-12-28T23:57:54.188Z,6.30
